メインページ
METAR-TAF:

METAR-TAF

空港 :

八尾空港

八尾, 日本

緯度: 34-36N, 経度: 135-36E, 海抜: 10m

現時点の気象観測

当レポートは21分前の07:00(UTC)に作成
の風 13kt
気温 34°C
湿度 53%
気圧 1007 hPa
視程10km以上
高度3000ftの雲はほとんどない
高度6000ftの雲は散在している
千切れ雲あり

METAR: RJOY 200700Z 10013KT 9999 FEW030 SCT060 BKN/// 34/23 Q1007

時間: 16:21 (07:21 UTC)


TAF: 見つかりません

4,000以上の空港の気象観測と天気予報(METAR報とTAF報)

利用可能な観測所は地図上に黄色い丸と赤い丸で示す。

丸の上にカーソルを重ねると観測所名を参照できる。

次にクリックすると気象観測と天気予報を参照できる。

マップの切り替え:黒色「×」印の緑ボタンをクリックして拡大、「-」印の緑ボタンをクリックして縮小、緑色の三角印をクリックして隣りの地図に切り替え


METAR-TAF: